sensor_id;sensor_type;location;lat;lon;timestamp;P1;durP1;ratioP1;P2;durP2;ratioP2
42036;SDS011;30340;52.004;5.908;2022-07-25T00:00:00;3.35;;;2.00;;
42036;SDS011;30340;52.004;5.908;2022-07-25T00:02:26;2.10;;;1.90;;
42036;SDS011;30340;52.004;5.908;2022-07-25T00:04:51;3.28;;;2.15;;
42036;SDS011;30340;52.004;5.908;2022-07-25T00:07:17;2.45;;;2.25;;
42036;SDS011;30340;52.004;5.908;2022-07-25T00:09:42;2.60;;;2.40;;
42036;SDS011;30340;52.004;5.908;2022-07-25T00:12:08;2.70;;;2.50;;
42036;SDS011;30340;52.004;5.908;2022-07-25T00:14:34;2.88;;;2.47;;
42036;SDS011;30340;52.004;5.908;2022-07-25T00:16:59;2.45;;;2.25;;
42036;SDS011;30340;52.004;5.908;2022-07-25T00:19:25;2.28;;;2.08;;
42036;SDS011;30340;52.004;5.908;2022-07-25T00:21:50;2.47;;;2.17;;
42036;SDS011;30340;52.004;5.908;2022-07-25T00:24:16;3.03;;;2.70;;
42036;SDS011;30340;52.004;5.908;2022-07-25T00:26:42;3.78;;;3.35;;
42036;SDS011;30340;52.004;5.908;2022-07-25T00:29:07;4.68;;;3.15;;
42036;SDS011;30340;52.004;5.908;2022-07-25T00:31:33;4.10;;;3.00;;
42036;SDS011;30340;52.004;5.908;2022-07-25T00:33:58;3.42;;;2.72;;
42036;SDS011;30340;52.004;5.908;2022-07-25T00:36:24;2.42;;;2.22;;
42036;SDS011;30340;52.004;5.908;2022-07-25T00:38:50;2.50;;;2.30;;
42036;SDS011;30340;52.004;5.908;2022-07-25T00:41:15;2.97;;;2.63;;
42036;SDS011;30340;52.004;5.908;2022-07-25T00:43:41;4.00;;;2.60;;
42036;SDS011;30340;52.004;5.908;2022-07-25T00:46:10;2.53;;;2.33;;
42036;SDS011;30340;52.004;5.908;2022-07-25T00:48:37;2.45;;;2.25;;
42036;SDS011;30340;52.004;5.908;2022-07-25T00:51:03;3.45;;;2.70;;
42036;SDS011;30340;52.004;5.908;2022-07-25T00:53:29;4.15;;;3.00;;
42036;SDS011;30340;52.004;5.908;2022-07-25T00:55:55;4.35;;;3.17;;
42036;SDS011;30340;52.004;5.908;2022-07-25T00:58:21;4.30;;;3.30;;
42036;SDS011;30340;52.004;5.908;2022-07-25T01:00:46;4.78;;;3.08;;
42036;SDS011;30340;52.004;5.908;2022-07-25T01:03:12;3.17;;;2.80;;
42036;SDS011;30340;52.004;5.908;2022-07-25T01:05:38;3.00;;;2.50;;
42036;SDS011;30340;52.004;5.908;2022-07-25T01:08:03;3.17;;;2.33;;
42036;SDS011;30340;52.004;5.908;2022-07-25T01:10:30;3.33;;;2.50;;
42036;SDS011;30340;52.004;5.908;2022-07-25T01:12:56;3.78;;;2.80;;
42036;SDS011;30340;52.004;5.908;2022-07-25T01:15:24;3.13;;;2.83;;
42036;SDS011;30340;52.004;5.908;2022-07-25T01:17:50;4.28;;;2.85;;
42036;SDS011;30340;52.004;5.908;2022-07-25T01:20:16;3.55;;;3.25;;
42036;SDS011;30340;52.004;5.908;2022-07-25T01:22:43;4.18;;;3.20;;
42036;SDS011;30340;52.004;5.908;2022-07-25T01:25:09;4.50;;;3.40;;
42036;SDS011;30340;52.004;5.908;2022-07-25T01:27:35;4.05;;;3.00;;
42036;SDS011;30340;52.004;5.908;2022-07-25T01:30:02;3.72;;;2.88;;
42036;SDS011;30340;52.004;5.908;2022-07-25T01:32:30;4.00;;;3.08;;
42036;SDS011;30340;52.004;5.908;2022-07-25T01:34:55;3.75;;;2.90;;
42036;SDS011;30340;52.004;5.908;2022-07-25T01:37:21;5.13;;;3.45;;
42036;SDS011;30340;52.004;5.908;2022-07-25T01:39:46;3.58;;;3.28;;
42036;SDS011;30340;52.004;5.908;2022-07-25T01:42:12;4.70;;;3.30;;
42036;SDS011;30340;52.004;5.908;2022-07-25T01:44:37;3.22;;;2.90;;
42036;SDS011;30340;52.004;5.908;2022-07-25T01:47:03;3.45;;;3.15;;
42036;SDS011;30340;52.004;5.908;2022-07-25T01:49:29;3.30;;;3.00;;
42036;SDS011;30340;52.004;5.908;2022-07-25T01:51:54;3.63;;;2.80;;
42036;SDS011;30340;52.004;5.908;2022-07-25T01:54:20;3.90;;;3.28;;
42036;SDS011;30340;52.004;5.908;2022-07-25T01:56:45;3.80;;;3.20;;
42036;SDS011;30340;52.004;5.908;2022-07-25T01:59:11;3.92;;;3.30;;
42036;SDS011;30340;52.004;5.908;2022-07-25T02:01:36;4.38;;;3.10;;
42036;SDS011;30340;52.004;5.908;2022-07-25T02:04:02;4.68;;;3.20;;
42036;SDS011;30340;52.004;5.908;2022-07-25T02:06:27;3.30;;;3.00;;
42036;SDS011;30340;52.004;5.908;2022-07-25T02:08:53;3.42;;;3.13;;
42036;SDS011;30340;52.004;5.908;2022-07-25T02:11:19;3.20;;;2.88;;
42036;SDS011;30340;52.004;5.908;2022-07-25T02:13:44;3.50;;;3.20;;
42036;SDS011;30340;52.004;5.908;2022-07-25T02:16:10;3.67;;;3.20;;
42036;SDS011;30340;52.004;5.908;2022-07-25T02:18:36;4.63;;;3.70;;
42036;SDS011;30340;52.004;5.908;2022-07-25T02:21:02;3.40;;;3.00;;
42036;SDS011;30340;52.004;5.908;2022-07-25T02:23:31;4.07;;;3.42;;
42036;SDS011;30340;52.004;5.908;2022-07-25T02:25:57;4.38;;;3.63;;
42036;SDS011;30340;52.004;5.908;2022-07-25T02:28:22;6.95;;;3.47;;
42036;SDS011;30340;52.004;5.908;2022-07-25T02:30:48;4.32;;;3.50;;
42036;SDS011;30340;52.004;5.908;2022-07-25T02:33:14;4.82;;;3.65;;
42036;SDS011;30340;52.004;5.908;2022-07-25T02:35:39;4.25;;;3.42;;
42036;SDS011;30340;52.004;5.908;2022-07-25T02:38:05;3.45;;;3.10;;
42036;SDS011;30340;52.004;5.908;2022-07-25T02:40:31;3.80;;;3.20;;
42036;SDS011;30340;52.004;5.908;2022-07-25T02:42:56;3.08;;;2.78;;
42036;SDS011;30340;52.004;5.908;2022-07-25T02:45:22;3.80;;;3.40;;
42036;SDS011;30340;52.004;5.908;2022-07-25T02:47:47;3.55;;;3.20;;
42036;SDS011;30340;52.004;5.908;2022-07-25T02:50:13;3.83;;;3.10;;
42036;SDS011;30340;52.004;5.908;2022-07-25T02:52:39;4.30;;;3.47;;
42036;SDS011;30340;52.004;5.908;2022-07-25T02:55:04;5.30;;;3.60;;
42036;SDS011;30340;52.004;5.908;2022-07-25T02:57:30;5.10;;;3.70;;
42036;SDS011;30340;52.004;5.908;2022-07-25T02:59:56;5.18;;;3.35;;
42036;SDS011;30340;52.004;5.908;2022-07-25T03:02:22;5.88;;;3.97;;
42036;SDS011;30340;52.004;5.908;2022-07-25T03:04:47;6.05;;;4.68;;
42036;SDS011;30340;52.004;5.908;2022-07-25T03:07:13;5.20;;;4.13;;
42036;SDS011;30340;52.004;5.908;2022-07-25T03:09:38;5.88;;;4.68;;
42036;SDS011;30340;52.004;5.908;2022-07-25T03:12:04;5.63;;;3.60;;
42036;SDS011;30340;52.004;5.908;2022-07-25T03:14:29;4.07;;;3.63;;
42036;SDS011;30340;52.004;5.908;2022-07-25T03:16:55;6.43;;;4.25;;
42036;SDS011;30340;52.004;5.908;2022-07-25T03:19:20;5.05;;;3.63;;
42036;SDS011;30340;52.004;5.908;2022-07-25T03:21:46;4.43;;;3.50;;
42036;SDS011;30340;52.004;5.908;2022-07-25T03:24:12;4.20;;;3.28;;
42036;SDS011;30340;52.004;5.908;2022-07-25T03:26:38;4.30;;;3.33;;
42036;SDS011;30340;52.004;5.908;2022-07-25T03:29:03;3.65;;;3.35;;
42036;SDS011;30340;52.004;5.908;2022-07-25T03:31:29;5.43;;;3.38;;
42036;SDS011;30340;52.004;5.908;2022-07-25T03:33:54;4.50;;;3.63;;
42036;SDS011;30340;52.004;5.908;2022-07-25T03:36:20;4.30;;;3.47;;
42036;SDS011;30340;52.004;5.908;2022-07-25T03:38:46;3.70;;;3.10;;
42036;SDS011;30340;52.004;5.908;2022-07-25T03:41:11;4.57;;;3.58;;
42036;SDS011;30340;52.004;5.908;2022-07-25T03:43:37;4.10;;;3.50;;
42036;SDS011;30340;52.004;5.908;2022-07-25T03:46:03;4.80;;;3.40;;
42036;SDS011;30340;52.004;5.908;2022-07-25T03:48:28;4.65;;;4.00;;
42036;SDS011;30340;52.004;5.908;2022-07-25T03:50:55;5.38;;;3.72;;
42036;SDS011;30340;52.004;5.908;2022-07-25T03:53:21;4.22;;;3.40;;
42036;SDS011;30340;52.004;5.908;2022-07-25T03:55:47;3.67;;;3.30;;
42036;SDS011;30340;52.004;5.908;2022-07-25T03:58:12;3.55;;;3.22;;
42036;SDS011;30340;52.004;5.908;2022-07-25T04:00:38;3.65;;;3.22;;
42036;SDS011;30340;52.004;5.908;2022-07-25T04:03:03;4.00;;;3.33;;
42036;SDS011;30340;52.004;5.908;2022-07-25T04:05:29;4.70;;;3.50;;
42036;SDS011;30340;52.004;5.908;2022-07-25T04:07:55;4.97;;;3.53;;
42036;SDS011;30340;52.004;5.908;2022-07-25T04:10:20;4.85;;;3.47;;
42036;SDS011;30340;52.004;5.908;2022-07-25T04:12:46;6.28;;;4.00;;
42036;SDS011;30340;52.004;5.908;2022-07-25T04:15:12;4.20;;;3.63;;
42036;SDS011;30340;52.004;5.908;2022-07-25T04:17:37;4.68;;;4.05;;
42036;SDS011;30340;52.004;5.908;2022-07-25T04:20:03;5.97;;;3.63;;
42036;SDS011;30340;52.004;5.908;2022-07-25T04:22:30;5.53;;;3.92;;
42036;SDS011;30340;52.004;5.908;2022-07-25T04:24:55;5.40;;;4.30;;
42036;SDS011;30340;52.004;5.908;2022-07-25T04:27:21;4.38;;;3.78;;
42036;SDS011;30340;52.004;5.908;2022-07-25T04:29:47;4.30;;;3.53;;
42036;SDS011;30340;52.004;5.908;2022-07-25T04:32:12;4.55;;;4.05;;
42036;SDS011;30340;52.004;5.908;2022-07-25T04:34:38;4.10;;;3.70;;
42036;SDS011;30340;52.004;5.908;2022-07-25T04:37:04;4.75;;;3.53;;
42036;SDS011;30340;52.004;5.908;2022-07-25T04:39:30;5.60;;;3.67;;
42036;SDS011;30340;52.004;5.908;2022-07-25T04:41:55;3.97;;;3.30;;
42036;SDS011;30340;52.004;5.908;2022-07-25T04:44:21;4.65;;;3.53;;
42036;SDS011;30340;52.004;5.908;2022-07-25T04:46:46;4.57;;;3.72;;
42036;SDS011;30340;52.004;5.908;2022-07-25T04:49:12;5.05;;;4.55;;
42036;SDS011;30340;52.004;5.908;2022-07-25T04:51:37;4.28;;;3.70;;
42036;SDS011;30340;52.004;5.908;2022-07-25T04:54:03;4.25;;;3.75;;
42036;SDS011;30340;52.004;5.908;2022-07-25T04:56:29;5.10;;;3.80;;
42036;SDS011;30340;52.004;5.908;2022-07-25T04:58:54;4.78;;;4.28;;
42036;SDS011;30340;52.004;5.908;2022-07-25T05:01:20;5.25;;;4.50;;
42036;SDS011;30340;52.004;5.908;2022-07-25T05:03:46;6.50;;;4.78;;
42036;SDS011;30340;52.004;5.908;2022-07-25T05:06:12;4.57;;;3.85;;
42036;SDS011;30340;52.004;5.908;2022-07-25T05:08:37;5.03;;;3.72;;
42036;SDS011;30340;52.004;5.908;2022-07-25T05:11:03;4.97;;;4.30;;
42036;SDS011;30340;52.004;5.908;2022-07-25T05:13:28;7.07;;;5.63;;
42036;SDS011;30340;52.004;5.908;2022-07-25T05:15:54;7.50;;;4.70;;
42036;SDS011;30340;52.004;5.908;2022-07-25T05:18:19;6.53;;;5.63;;
42036;SDS011;30340;52.004;5.908;2022-07-25T05:20:45;6.38;;;5.68;;
42036;SDS011;30340;52.004;5.908;2022-07-25T05:23:11;6.47;;;5.03;;
42036;SDS011;30340;52.004;5.908;2022-07-25T05:25:37;6.60;;;5.32;;
42036;SDS011;30340;52.004;5.908;2022-07-25T05:28:03;6.80;;;5.05;;
42036;SDS011;30340;52.004;5.908;2022-07-25T05:30:28;7.15;;;5.50;;
42036;SDS011;30340;52.004;5.908;2022-07-25T05:32:54;5.82;;;4.70;;
42036;SDS011;30340;52.004;5.908;2022-07-25T05:35:19;5.45;;;4.43;;
42036;SDS011;30340;52.004;5.908;2022-07-25T05:37:45;6.25;;;5.28;;
42036;SDS011;30340;52.004;5.908;2022-07-25T05:40:10;7.18;;;4.53;;
42036;SDS011;30340;52.004;5.908;2022-07-25T05:42:37;6.00;;;5.07;;
42036;SDS011;30340;52.004;5.908;2022-07-25T05:45:02;5.65;;;4.95;;
42036;SDS011;30340;52.004;5.908;2022-07-25T05:47:28;6.05;;;4.80;;
42036;SDS011;30340;52.004;5.908;2022-07-25T05:49:54;8.45;;;6.95;;
42036;SDS011;30340;52.004;5.908;2022-07-25T05:52:19;6.97;;;5.68;;
42036;SDS011;30340;52.004;5.908;2022-07-25T05:54:46;8.50;;;7.13;;
42036;SDS011;30340;52.004;5.908;2022-07-25T05:57:11;6.75;;;5.43;;
42036;SDS011;30340;52.004;5.908;2022-07-25T05:59:37;7.13;;;5.28;;
42036;SDS011;30340;52.004;5.908;2022-07-25T06:02:02;6.85;;;6.15;;
42036;SDS011;30340;52.004;5.908;2022-07-25T06:04:28;6.18;;;5.10;;
42036;SDS011;30340;52.004;5.908;2022-07-25T06:06:54;6.65;;;4.57;;
42036;SDS011;30340;52.004;5.908;2022-07-25T06:09:20;7.03;;;5.00;;
42036;SDS011;30340;52.004;5.908;2022-07-25T06:11:47;7.05;;;5.90;;
42036;SDS011;30340;52.004;5.908;2022-07-25T06:14:14;5.50;;;4.85;;
42036;SDS011;30340;52.004;5.908;2022-07-25T06:16:40;6.30;;;5.50;;
42036;SDS011;30340;52.004;5.908;2022-07-25T06:19:06;6.22;;;5.38;;
42036;SDS011;30340;52.004;5.908;2022-07-25T06:21:31;8.57;;;6.45;;
42036;SDS011;30340;52.004;5.908;2022-07-25T06:23:57;6.70;;;5.57;;
42036;SDS011;30340;52.004;5.908;2022-07-25T06:26:23;7.65;;;5.70;;
42036;SDS011;30340;52.004;5.908;2022-07-25T06:28:49;6.50;;;5.70;;
42036;SDS011;30340;52.004;5.908;2022-07-25T06:31:15;6.80;;;5.00;;
42036;SDS011;30340;52.004;5.908;2022-07-25T06:33:41;6.63;;;4.78;;
42036;SDS011;30340;52.004;5.908;2022-07-25T06:36:07;6.63;;;5.22;;
42036;SDS011;30340;52.004;5.908;2022-07-25T06:38:33;7.43;;;5.68;;
42036;SDS011;30340;52.004;5.908;2022-07-25T06:40:58;7.10;;;4.85;;
42036;SDS011;30340;52.004;5.908;2022-07-25T06:43:24;7.30;;;5.38;;
42036;SDS011;30340;52.004;5.908;2022-07-25T06:45:49;4.45;;;3.90;;
42036;SDS011;30340;52.004;5.908;2022-07-25T06:48:15;6.07;;;5.22;;
42036;SDS011;30340;52.004;5.908;2022-07-25T06:50:41;5.43;;;4.72;;
42036;SDS011;30340;52.004;5.908;2022-07-25T06:53:07;5.00;;;4.50;;
42036;SDS011;30340;52.004;5.908;2022-07-25T06:55:33;5.88;;;4.88;;
42036;SDS011;30340;52.004;5.908;2022-07-25T06:57:59;6.10;;;4.72;;
42036;SDS011;30340;52.004;5.908;2022-07-25T07:00:24;5.88;;;4.72;;
42036;SDS011;30340;52.004;5.908;2022-07-25T07:02:51;5.95;;;5.18;;
42036;SDS011;30340;52.004;5.908;2022-07-25T07:05:24;5.32;;;4.25;;
42036;SDS011;30340;52.004;5.908;2022-07-25T07:07:52;4.45;;;3.97;;
42036;SDS011;30340;52.004;5.908;2022-07-25T07:10:18;5.15;;;4.10;;
42036;SDS011;30340;52.004;5.908;2022-07-25T07:12:44;7.10;;;4.45;;
42036;SDS011;30340;52.004;5.908;2022-07-25T07:15:11;4.95;;;3.72;;
42036;SDS011;30340;52.004;5.908;2022-07-25T07:17:36;4.78;;;4.20;;
42036;SDS011;30340;52.004;5.908;2022-07-25T07:20:02;5.22;;;4.15;;
42036;SDS011;30340;52.004;5.908;2022-07-25T07:22:30;6.05;;;3.80;;
42036;SDS011;30340;52.004;5.908;2022-07-25T07:24:55;6.53;;;3.95;;
42036;SDS011;30340;52.004;5.908;2022-07-25T07:27:21;4.85;;;3.70;;
42036;SDS011;30340;52.004;5.908;2022-07-25T07:29:49;6.07;;;4.20;;
42036;SDS011;30340;52.004;5.908;2022-07-25T07:32:15;3.13;;;2.78;;
42036;SDS011;30340;52.004;5.908;2022-07-25T07:34:41;4.40;;;3.60;;
42036;SDS011;30340;52.004;5.908;2022-07-25T07:37:07;4.43;;;3.20;;
42036;SDS011;30340;52.004;5.908;2022-07-25T07:39:32;3.50;;;2.92;;
42036;SDS011;30340;52.004;5.908;2022-07-25T07:41:58;4.03;;;3.08;;
42036;SDS011;30340;52.004;5.908;2022-07-25T07:44:24;4.47;;;3.00;;
42036;SDS011;30340;52.004;5.908;2022-07-25T07:46:50;3.50;;;2.80;;
42036;SDS011;30340;52.004;5.908;2022-07-25T07:49:15;3.25;;;2.75;;
42036;SDS011;30340;52.004;5.908;2022-07-25T07:51:41;5.47;;;2.80;;
42036;SDS011;30340;52.004;5.908;2022-07-25T07:54:06;3.25;;;2.60;;
42036;SDS011;30340;52.004;5.908;2022-07-25T07:56:50;4.15;;;2.63;;
42036;SDS011;30340;52.004;5.908;2022-07-25T07:59:16;2.97;;;2.30;;
42036;SDS011;30340;52.004;5.908;2022-07-25T08:01:41;2.75;;;2.35;;
42036;SDS011;30340;52.004;5.908;2022-07-25T08:04:07;2.63;;;2.10;;
42036;SDS011;30340;52.004;5.908;2022-07-25T08:06:33;2.72;;;2.50;;
42036;SDS011;30340;52.004;5.908;2022-07-25T08:08:58;2.65;;;2.45;;
42036;SDS011;30340;52.004;5.908;2022-07-25T08:11:24;4.40;;;2.50;;
42036;SDS011;30340;52.004;5.908;2022-07-25T08:13:50;2.55;;;2.00;;
42036;SDS011;30340;52.004;5.908;2022-07-25T08:16:16;1.98;;;1.77;;
42036;SDS011;30340;52.004;5.908;2022-07-25T08:18:42;2.35;;;1.90;;
42036;SDS011;30340;52.004;5.908;2022-07-25T08:21:08;2.70;;;1.88;;
42036;SDS011;30340;52.004;5.908;2022-07-25T08:23:34;2.80;;;1.90;;
42036;SDS011;30340;52.004;5.908;2022-07-25T08:26:02;1.85;;;1.60;;
42036;SDS011;30340;52.004;5.908;2022-07-25T08:28:28;3.47;;;1.60;;
42036;SDS011;30340;52.004;5.908;2022-07-25T08:30:54;2.58;;;1.70;;
42036;SDS011;30340;52.004;5.908;2022-07-25T08:33:20;2.17;;;1.52;;
42036;SDS011;30340;52.004;5.908;2022-07-25T08:35:46;1.70;;;1.58;;
42036;SDS011;30340;52.004;5.908;2022-07-25T08:38:13;1.63;;;1.50;;
42036;SDS011;30340;52.004;5.908;2022-07-25T08:40:39;1.67;;;1.48;;
42036;SDS011;30340;52.004;5.908;2022-07-25T08:43:04;2.38;;;1.52;;
42036;SDS011;30340;52.004;5.908;2022-07-25T08:45:34;2.75;;;1.48;;
42036;SDS011;30340;52.004;5.908;2022-07-25T08:48:00;1.42;;;1.33;;
42036;SDS011;30340;52.004;5.908;2022-07-25T08:50:27;2.00;;;1.30;;
42036;SDS011;30340;52.004;5.908;2022-07-25T08:52:53;1.58;;;1.20;;
42036;SDS011;30340;52.004;5.908;2022-07-25T08:55:20;2.00;;;1.38;;
42036;SDS011;30340;52.004;5.908;2022-07-25T08:57:48;1.40;;;1.20;;
42036;SDS011;30340;52.004;5.908;2022-07-25T09:00:16;1.40;;;1.30;;
42036;SDS011;30340;52.004;5.908;2022-07-25T09:02:53;1.60;;;1.27;;
42036;SDS011;30340;52.004;5.908;2022-07-25T09:05:20;1.77;;;1.20;;
42036;SDS011;30340;52.004;5.908;2022-07-25T09:07:47;1.75;;;1.20;;
42036;SDS011;30340;52.004;5.908;2022-07-25T09:10:20;2.47;;;1.67;;
42036;SDS011;30340;52.004;5.908;2022-07-25T09:12:51;2.33;;;1.20;;
42036;SDS011;30340;52.004;5.908;2022-07-25T09:15:38;1.30;;;1.20;;
42036;SDS011;30340;52.004;5.908;2022-07-25T09:18:06;1.27;;;1.17;;
42036;SDS011;30340;52.004;5.908;2022-07-25T09:20:41;1.35;;;1.13;;
42036;SDS011;30340;52.004;5.908;2022-07-25T09:23:13;2.85;;;1.30;;
42036;SDS011;30340;52.004;5.908;2022-07-25T09:28:40;1.30;;;1.20;;
42036;SDS011;30340;52.004;5.908;2022-07-25T09:31:07;3.35;;;1.20;;
42036;SDS011;30340;52.004;5.908;2022-07-25T09:33:33;1.52;;;1.13;;
42036;SDS011;30340;52.004;5.908;2022-07-25T09:36:11;1.15;;;1.00;;
42036;SDS011;30340;52.004;5.908;2022-07-25T09:38:37;1.17;;;1.08;;
42036;SDS011;30340;52.004;5.908;2022-07-25T09:41:03;1.52;;;1.02;;
42036;SDS011;30340;52.004;5.908;2022-07-25T09:43:41;1.13;;;0.90;;
42036;SDS011;30340;52.004;5.908;2022-07-25T09:46:08;2.20;;;1.00;;
42036;SDS011;30340;52.004;5.908;2022-07-25T09:48:36;1.98;;;0.85;;
42036;SDS011;30340;52.004;5.908;2022-07-25T09:51:03;1.17;;;0.85;;
42036;SDS011;30340;52.004;5.908;2022-07-25T09:53:30;2.63;;;0.90;;
42036;SDS011;30340;52.004;5.908;2022-07-25T09:55:56;1.63;;;0.80;;
42036;SDS011;30340;52.004;5.908;2022-07-25T09:58:26;0.70;;;0.70;;
42036;SDS011;30340;52.004;5.908;2022-07-25T10:00:53;2.08;;;0.70;;
42036;SDS011;30340;52.004;5.908;2022-07-25T10:03:28;2.13;;;0.93;;
42036;SDS011;30340;52.004;5.908;2022-07-25T10:06:23;1.02;;;0.90;;
42036;SDS011;30340;52.004;5.908;2022-07-25T10:08:52;1.13;;;0.88;;
42036;SDS011;30340;52.004;5.908;2022-07-25T10:11:23;2.10;;;0.60;;
42036;SDS011;30340;52.004;5.908;2022-07-25T10:13:50;1.08;;;0.50;;
42036;SDS011;30340;52.004;5.908;2022-07-25T10:16:18;1.85;;;1.08;;
42036;SDS011;30340;52.004;5.908;2022-07-25T10:18:49;1.58;;;0.80;;
42036;SDS011;30340;52.004;5.908;2022-07-25T10:21:16;1.08;;;0.80;;
42036;SDS011;30340;52.004;5.908;2022-07-25T10:23:43;2.35;;;1.10;;
42036;SDS011;30340;52.004;5.908;2022-07-25T10:26:13;2.00;;;1.00;;
42036;SDS011;30340;52.004;5.908;2022-07-25T10:28:44;2.80;;;1.00;;
42036;SDS011;30340;52.004;5.908;2022-07-25T10:33:46;2.55;;;1.05;;
42036;SDS011;30340;52.004;5.908;2022-07-25T10:36:13;1.10;;;0.90;;
42036;SDS011;30340;52.004;5.908;2022-07-25T10:38:38;1.92;;;1.10;;
42036;SDS011;30340;52.004;5.908;2022-07-25T10:41:07;2.17;;;0.98;;
42036;SDS011;30340;52.004;5.908;2022-07-25T10:43:36;2.03;;;1.00;;
42036;SDS011;30340;52.004;5.908;2022-07-25T10:46:09;2.03;;;1.10;;
42036;SDS011;30340;52.004;5.908;2022-07-25T10:48:41;2.33;;;1.02;;
42036;SDS011;30340;52.004;5.908;2022-07-25T10:51:08;1.33;;;1.00;;
42036;SDS011;30340;52.004;5.908;2022-07-25T10:56:09;2.63;;;1.20;;
42036;SDS011;30340;52.004;5.908;2022-07-25T10:58:40;3.17;;;1.33;;
42036;SDS011;30340;52.004;5.908;2022-07-25T11:01:26;2.60;;;1.50;;
42036;SDS011;30340;52.004;5.908;2022-07-25T11:03:54;1.80;;;1.10;;
42036;SDS011;30340;52.004;5.908;2022-07-25T11:06:33;1.83;;;1.20;;
42036;SDS011;30340;52.004;5.908;2022-07-25T11:09:13;3.95;;;1.40;;
42036;SDS011;30340;52.004;5.908;2022-07-25T11:11:41;2.00;;;1.10;;
42036;SDS011;30340;52.004;5.908;2022-07-25T11:14:15;2.08;;;1.00;;
42036;SDS011;30340;52.004;5.908;2022-07-25T11:16:43;3.50;;;1.17;;
42036;SDS011;30340;52.004;5.908;2022-07-25T11:19:27;2.95;;;1.33;;
42036;SDS011;30340;52.004;5.908;2022-07-25T11:24:35;2.30;;;1.20;;
42036;SDS011;30340;52.004;5.908;2022-07-25T11:27:06;2.45;;;1.10;;
42036;SDS011;30340;52.004;5.908;2022-07-25T11:29:33;1.52;;;0.98;;
42036;SDS011;30340;52.004;5.908;2022-07-25T11:32:00;3.25;;;1.40;;
42036;SDS011;30340;52.004;5.908;2022-07-25T11:34:28;4.50;;;1.23;;
42036;SDS011;30340;52.004;5.908;2022-07-25T11:36:55;3.65;;;1.20;;
42036;SDS011;30340;52.004;5.908;2022-07-25T11:39:26;3.70;;;1.15;;
42036;SDS011;30340;52.004;5.908;2022-07-25T11:42:03;2.50;;;1.35;;
42036;SDS011;30340;52.004;5.908;2022-07-25T11:46:59;4.65;;;1.70;;
42036;SDS011;30340;52.004;5.908;2022-07-25T11:49:25;2.70;;;1.30;;
42036;SDS011;30340;52.004;5.908;2022-07-25T11:51:50;3.35;;;1.30;;
42036;SDS011;30340;52.004;5.908;2022-07-25T11:54:16;3.35;;;1.35;;
42036;SDS011;30340;52.004;5.908;2022-07-25T11:56:42;3.13;;;1.40;;
42036;SDS011;30340;52.004;5.908;2022-07-25T11:59:10;3.38;;;1.38;;
42036;SDS011;30340;52.004;5.908;2022-07-25T12:01:37;2.85;;;1.20;;
42036;SDS011;30340;52.004;5.908;2022-07-25T12:04:12;2.40;;;1.23;;
42036;SDS011;30340;52.004;5.908;2022-07-25T12:06:40;2.45;;;1.23;;
42036;SDS011;30340;52.004;5.908;2022-07-25T12:09:14;2.35;;;1.08;;
42036;SDS011;30340;52.004;5.908;2022-07-25T12:11:41;4.75;;;1.48;;
42036;SDS011;30340;52.004;5.908;2022-07-25T12:14:07;3.58;;;1.45;;
42036;SDS011;30340;52.004;5.908;2022-07-25T12:16:34;2.95;;;1.40;;
42036;SDS011;30340;52.004;5.908;2022-07-25T12:19:00;3.10;;;1.30;;
42036;SDS011;30340;52.004;5.908;2022-07-25T12:21:27;2.78;;;1.10;;
42036;SDS011;30340;52.004;5.908;2022-07-25T12:23:53;1.80;;;1.20;;
42036;SDS011;30340;52.004;5.908;2022-07-25T12:26:18;2.47;;;1.30;;
42036;SDS011;30340;52.004;5.908;2022-07-25T12:28:44;3.35;;;1.60;;
42036;SDS011;30340;52.004;5.908;2022-07-25T12:31:09;4.28;;;1.90;;
42036;SDS011;30340;52.004;5.908;2022-07-25T12:33:35;8.07;;;1.60;;
42036;SDS011;30340;52.004;5.908;2022-07-25T12:36:01;2.97;;;1.40;;
42036;SDS011;30340;52.004;5.908;2022-07-25T12:38:27;3.70;;;1.35;;
42036;SDS011;30340;52.004;5.908;2022-07-25T12:40:53;4.00;;;1.60;;
42036;SDS011;30340;52.004;5.908;2022-07-25T12:43:20;3.90;;;1.60;;
42036;SDS011;30340;52.004;5.908;2022-07-25T12:45:46;3.55;;;1.63;;
42036;SDS011;30340;52.004;5.908;2022-07-25T12:48:12;2.55;;;1.67;;
42036;SDS011;30340;52.004;5.908;2022-07-25T12:50:39;3.90;;;1.58;;
42036;SDS011;30340;52.004;5.908;2022-07-25T12:53:08;3.63;;;1.75;;
42036;SDS011;30340;52.004;5.908;2022-07-25T12:55:34;5.78;;;2.20;;
42036;SDS011;30340;52.004;5.908;2022-07-25T12:58:00;4.88;;;1.67;;
42036;SDS011;30340;52.004;5.908;2022-07-25T13:00:26;5.50;;;1.90;;
42036;SDS011;30340;52.004;5.908;2022-07-25T13:02:52;4.10;;;1.85;;
42036;SDS011;30340;52.004;5.908;2022-07-25T13:05:21;5.47;;;2.20;;
42036;SDS011;30340;52.004;5.908;2022-07-25T13:07:48;4.57;;;1.90;;
42036;SDS011;30340;52.004;5.908;2022-07-25T13:10:14;5.03;;;1.92;;
42036;SDS011;30340;52.004;5.908;2022-07-25T13:12:41;2.13;;;1.40;;
42036;SDS011;30340;52.004;5.908;2022-07-25T13:15:06;3.80;;;1.50;;
42036;SDS011;30340;52.004;5.908;2022-07-25T13:17:32;4.28;;;1.75;;
42036;SDS011;30340;52.004;5.908;2022-07-25T13:19:58;2.22;;;1.50;;
42036;SDS011;30340;52.004;5.908;2022-07-25T13:22:24;3.42;;;1.80;;
42036;SDS011;30340;52.004;5.908;2022-07-25T13:24:51;4.88;;;1.63;;
42036;SDS011;30340;52.004;5.908;2022-07-25T13:27:17;5.03;;;2.17;;
42036;SDS011;30340;52.004;5.908;2022-07-25T13:29:45;3.95;;;1.63;;
42036;SDS011;30340;52.004;5.908;2022-07-25T13:32:11;2.45;;;1.45;;
42036;SDS011;30340;52.004;5.908;2022-07-25T13:34:37;3.08;;;1.80;;
42036;SDS011;30340;52.004;5.908;2022-07-25T13:37:02;4.05;;;1.58;;
42036;SDS011;30340;52.004;5.908;2022-07-25T13:39:28;3.53;;;1.50;;
42036;SDS011;30340;52.004;5.908;2022-07-25T13:41:54;3.17;;;1.45;;
42036;SDS011;30340;52.004;5.908;2022-07-25T13:44:19;2.50;;;1.58;;
42036;SDS011;30340;52.004;5.908;2022-07-25T13:46:45;4.22;;;1.73;;
42036;SDS011;30340;52.004;5.908;2022-07-25T13:49:13;7.00;;;2.40;;
42036;SDS011;30340;52.004;5.908;2022-07-25T13:51:40;6.57;;;1.90;;
42036;SDS011;30340;52.004;5.908;2022-07-25T13:54:05;3.63;;;1.83;;
42036;SDS011;30340;52.004;5.908;2022-07-25T13:56:31;6.38;;;2.13;;
42036;SDS011;30340;52.004;5.908;2022-07-25T13:58:57;3.55;;;1.60;;
42036;SDS011;30340;52.004;5.908;2022-07-25T14:01:23;3.35;;;1.52;;
42036;SDS011;30340;52.004;5.908;2022-07-25T14:03:51;3.90;;;1.60;;
42036;SDS011;30340;52.004;5.908;2022-07-25T14:06:16;4.18;;;1.95;;
42036;SDS011;30340;52.004;5.908;2022-07-25T14:08:42;3.55;;;1.58;;
42036;SDS011;30340;52.004;5.908;2022-07-25T14:11:07;3.85;;;1.63;;
42036;SDS011;30340;52.004;5.908;2022-07-25T14:13:33;2.95;;;1.55;;
42036;SDS011;30340;52.004;5.908;2022-07-25T14:16:00;3.58;;;1.67;;
42036;SDS011;30340;52.004;5.908;2022-07-25T14:18:25;4.47;;;1.40;;
42036;SDS011;30340;52.004;5.908;2022-07-25T14:20:51;3.17;;;1.58;;
42036;SDS011;30340;52.004;5.908;2022-07-25T14:23:19;3.03;;;1.60;;
42036;SDS011;30340;52.004;5.908;2022-07-25T14:25:44;3.58;;;1.52;;
42036;SDS011;30340;52.004;5.908;2022-07-25T14:28:10;4.25;;;1.38;;
42036;SDS011;30340;52.004;5.908;2022-07-25T14:30:35;2.90;;;1.40;;
42036;SDS011;30340;52.004;5.908;2022-07-25T14:33:01;5.25;;;1.40;;
42036;SDS011;30340;52.004;5.908;2022-07-25T14:35:27;3.40;;;1.58;;
42036;SDS011;30340;52.004;5.908;2022-07-25T14:37:53;4.10;;;1.55;;
42036;SDS011;30340;52.004;5.908;2022-07-25T14:40:18;3.83;;;1.40;;
42036;SDS011;30340;52.004;5.908;2022-07-25T14:42:44;3.17;;;1.50;;
42036;SDS011;30340;52.004;5.908;2022-07-25T14:45:10;3.53;;;1.55;;
42036;SDS011;30340;52.004;5.908;2022-07-25T14:47:37;5.50;;;1.88;;
42036;SDS011;30340;52.004;5.908;2022-07-25T14:50:03;4.18;;;1.48;;
42036;SDS011;30340;52.004;5.908;2022-07-25T14:52:29;3.85;;;1.73;;
42036;SDS011;30340;52.004;5.908;2022-07-25T14:54:55;2.58;;;1.17;;
42036;SDS011;30340;52.004;5.908;2022-07-25T14:57:21;3.83;;;1.50;;